sensor_id;sensor_type;location;lat;lon;timestamp;P1;durP1;ratioP1;P2;durP2;ratioP2
53391;SDS011;41667;51.922;8.850;2024-03-23T00:53:24;4.47;;;1.92;;
53391;SDS011;41667;51.922;8.850;2024-03-23T00:55:50;9.32;;;2.67;;
53391;SDS011;41667;51.922;8.850;2024-03-23T00:58:15;5.05;;;2.03;;
53391;SDS011;41667;51.922;8.850;2024-03-23T01:00:40;8.52;;;2.65;;
53391;SDS011;41667;51.922;8.850;2024-03-23T01:03:06;6.50;;;1.77;;
53391;SDS011;41667;51.922;8.850;2024-03-23T01:05:31;7.63;;;2.35;;
53391;SDS011;41667;51.922;8.850;2024-03-23T01:07:56;8.27;;;2.10;;
53391;SDS011;41667;51.922;8.850;2024-03-23T01:10:22;6.13;;;1.85;;
53391;SDS011;41667;51.922;8.850;2024-03-23T01:12:47;6.70;;;2.33;;
53391;SDS011;41667;51.922;8.850;2024-03-23T01:15:12;8.15;;;2.53;;
53391;SDS011;41667;51.922;8.850;2024-03-23T01:17:37;10.50;;;2.55;;
53391;SDS011;41667;51.922;8.850;2024-03-23T01:20:03;6.93;;;2.20;;
53391;SDS011;41667;51.922;8.850;2024-03-23T01:22:29;5.65;;;2.10;;
53391;SDS011;41667;51.922;8.850;2024-03-23T01:24:54;8.57;;;3.40;;
53391;SDS011;41667;51.922;8.850;2024-03-23T01:27:19;4.97;;;2.15;;
53391;SDS011;41667;51.922;8.850;2024-03-23T01:29:45;10.55;;;2.97;;
53391;SDS011;41667;51.922;8.850;2024-03-23T01:32:10;6.30;;;2.33;;
53391;SDS011;41667;51.922;8.850;2024-03-23T01:34:35;6.78;;;2.22;;
53391;SDS011;41667;51.922;8.850;2024-03-23T01:37:01;4.90;;;2.30;;
53391;SDS011;41667;51.922;8.850;2024-03-23T01:39:26;5.10;;;2.67;;
53391;SDS011;41667;51.922;8.850;2024-03-23T01:41:51;13.25;;;3.28;;
53391;SDS011;41667;51.922;8.850;2024-03-23T01:44:17;8.15;;;2.40;;
53391;SDS011;41667;51.922;8.850;2024-03-23T01:46:42;8.73;;;2.33;;
53391;SDS011;41667;51.922;8.850;2024-03-23T01:49:08;8.68;;;3.65;;
53391;SDS011;41667;51.922;8.850;2024-03-23T01:51:34;9.50;;;3.60;;
53391;SDS011;41667;51.922;8.850;2024-03-23T01:54:01;11.43;;;2.75;;
53391;SDS011;41667;51.922;8.850;2024-03-23T01:56:28;7.88;;;3.13;;
53391;SDS011;41667;51.922;8.850;2024-03-23T02:01:25;7.72;;;2.42;;
53391;SDS011;41667;51.922;8.850;2024-03-23T02:03:51;8.73;;;2.13;;
53391;SDS011;41667;51.922;8.850;2024-03-23T02:06:16;6.38;;;2.15;;
53391;SDS011;41667;51.922;8.850;2024-03-23T02:08:42;8.88;;;3.13;;
53391;SDS011;41667;51.922;8.850;2024-03-23T02:11:08;7.05;;;2.90;;
53391;SDS011;41667;51.922;8.850;2024-03-23T02:13:33;13.35;;;3.05;;
53391;SDS011;41667;51.922;8.850;2024-03-23T02:15:58;6.55;;;2.67;;
53391;SDS011;41667;51.922;8.850;2024-03-23T02:18:24;2.78;;;2.30;;
53391;SDS011;41667;51.922;8.850;2024-03-23T02:20:49;3.45;;;2.00;;
53391;SDS011;41667;51.922;8.850;2024-03-23T02:23:15;7.30;;;2.15;;
53391;SDS011;41667;51.922;8.850;2024-03-23T02:25:41;15.85;;;2.67;;
53391;SDS011;41667;51.922;8.850;2024-03-23T02:28:06;7.28;;;2.65;;
53391;SDS011;41667;51.922;8.850;2024-03-23T02:30:31;7.72;;;2.45;;
53391;SDS011;41667;51.922;8.850;2024-03-23T02:32:57;5.95;;;2.42;;
53391;SDS011;41667;51.922;8.850;2024-03-23T02:35:22;11.40;;;2.85;;
53391;SDS011;41667;51.922;8.850;2024-03-23T02:37:47;10.55;;;2.25;;
53391;SDS011;41667;51.922;8.850;2024-03-23T02:40:16;14.50;;;3.42;;
53391;SDS011;41667;51.922;8.850;2024-03-23T02:42:41;8.13;;;2.65;;
53391;SDS011;41667;51.922;8.850;2024-03-23T02:45:06;8.65;;;2.65;;
53391;SDS011;41667;51.922;8.850;2024-03-23T02:47:32;7.72;;;4.20;;
53391;SDS011;41667;51.922;8.850;2024-03-23T02:49:58;5.70;;;2.70;;
53391;SDS011;41667;51.922;8.850;2024-03-23T02:52:23;6.35;;;4.07;;
53391;SDS011;41667;51.922;8.850;2024-03-23T02:54:48;10.45;;;3.47;;
53391;SDS011;41667;51.922;8.850;2024-03-23T02:57:14;6.10;;;3.47;;
53391;SDS011;41667;51.922;8.850;2024-03-23T02:59:39;13.35;;;2.97;;
53391;SDS011;41667;51.922;8.850;2024-03-23T03:02:04;5.75;;;2.67;;
53391;SDS011;41667;51.922;8.850;2024-03-23T03:04:30;10.80;;;3.33;;
53391;SDS011;41667;51.922;8.850;2024-03-23T03:06:55;13.85;;;2.72;;
53391;SDS011;41667;51.922;8.850;2024-03-23T03:09:21;11.80;;;3.17;;
53391;SDS011;41667;51.922;8.850;2024-03-23T03:11:46;5.80;;;2.90;;
53391;SDS011;41667;51.922;8.850;2024-03-23T03:14:11;6.80;;;2.72;;
53391;SDS011;41667;51.922;8.850;2024-03-23T03:16:37;8.00;;;2.67;;
53391;SDS011;41667;51.922;8.850;2024-03-23T03:19:02;4.85;;;2.85;;
53391;SDS011;41667;51.922;8.850;2024-03-23T03:21:27;5.43;;;2.38;;
53391;SDS011;41667;51.922;8.850;2024-03-23T03:23:53;2.22;;;1.95;;
53391;SDS011;41667;51.922;8.850;2024-03-23T03:26:21;3.53;;;2.00;;
53391;SDS011;41667;51.922;8.850;2024-03-23T03:28:46;2.03;;;1.60;;
53391;SDS011;41667;51.922;8.850;2024-03-23T03:31:15;3.85;;;2.00;;
53391;SDS011;41667;51.922;8.850;2024-03-23T03:33:41;4.97;;;1.60;;
53391;SDS011;41667;51.922;8.850;2024-03-23T03:36:07;2.72;;;1.83;;
53391;SDS011;41667;51.922;8.850;2024-03-23T03:38:32;7.13;;;2.20;;
53391;SDS011;41667;51.922;8.850;2024-03-23T03:41:00;2.38;;;1.52;;
53391;SDS011;41667;51.922;8.850;2024-03-23T03:43:25;4.10;;;1.55;;
53391;SDS011;41667;51.922;8.850;2024-03-23T03:45:51;4.75;;;2.00;;
53391;SDS011;41667;51.922;8.850;2024-03-23T03:48:19;1.95;;;1.77;;
53391;SDS011;41667;51.922;8.850;2024-03-23T03:50:44;3.20;;;1.67;;
53391;SDS011;41667;51.922;8.850;2024-03-23T03:53:10;2.88;;;1.23;;
53391;SDS011;41667;51.922;8.850;2024-03-23T03:55:35;5.00;;;1.40;;
53391;SDS011;41667;51.922;8.850;2024-03-23T03:58:00;2.90;;;1.30;;
53391;SDS011;41667;51.922;8.850;2024-03-23T04:00:26;3.70;;;1.30;;
53391;SDS011;41667;51.922;8.850;2024-03-23T04:02:51;3.83;;;1.63;;
53391;SDS011;41667;51.922;8.850;2024-03-23T04:05:16;2.83;;;0.98;;
53391;SDS011;41667;51.922;8.850;2024-03-23T04:07:42;3.63;;;1.20;;
53391;SDS011;41667;51.922;8.850;2024-03-23T04:10:07;2.72;;;1.55;;
53391;SDS011;41667;51.922;8.850;2024-03-23T04:12:33;4.88;;;2.05;;
53391;SDS011;41667;51.922;8.850;2024-03-23T04:14:59;10.45;;;1.60;;
53391;SDS011;41667;51.922;8.850;2024-03-23T04:17:24;6.13;;;1.58;;
53391;SDS011;41667;51.922;8.850;2024-03-23T04:19:50;2.30;;;1.15;;
53391;SDS011;41667;51.922;8.850;2024-03-23T04:22:17;1.30;;;1.23;;
53391;SDS011;41667;51.922;8.850;2024-03-23T04:24:42;5.30;;;1.58;;
53391;SDS011;41667;51.922;8.850;2024-03-23T04:27:08;4.25;;;1.55;;
53391;SDS011;41667;51.922;8.850;2024-03-23T04:29:33;4.82;;;1.83;;
53391;SDS011;41667;51.922;8.850;2024-03-23T04:31:58;5.38;;;2.10;;
53391;SDS011;41667;51.922;8.850;2024-03-23T04:34:24;4.60;;;1.75;;
53391;SDS011;41667;51.922;8.850;2024-03-23T04:36:49;4.63;;;1.60;;
53391;SDS011;41667;51.922;8.850;2024-03-23T04:39:15;3.33;;;2.20;;
53391;SDS011;41667;51.922;8.850;2024-03-23T04:41:40;9.55;;;2.35;;
53391;SDS011;41667;51.922;8.850;2024-03-23T04:44:05;6.47;;;3.13;;
53391;SDS011;41667;51.922;8.850;2024-03-23T04:46:31;5.18;;;2.55;;
53391;SDS011;41667;51.922;8.850;2024-03-23T04:48:56;8.02;;;2.47;;
53391;SDS011;41667;51.922;8.850;2024-03-23T04:51:25;3.53;;;2.28;;
53391;SDS011;41667;51.922;8.850;2024-03-23T04:53:50;9.60;;;2.85;;
53391;SDS011;41667;51.922;8.850;2024-03-23T04:56:16;3.15;;;2.35;;
53391;SDS011;41667;51.922;8.850;2024-03-23T04:58:42;6.45;;;2.70;;
53391;SDS011;41667;51.922;8.850;2024-03-23T05:01:07;2.80;;;2.40;;
53391;SDS011;41667;51.922;8.850;2024-03-23T05:03:33;2.15;;;2.05;;
53391;SDS011;41667;51.922;8.850;2024-03-23T05:05:59;3.05;;;2.40;;
53391;SDS011;41667;51.922;8.850;2024-03-23T05:08:25;4.57;;;1.77;;
53391;SDS011;41667;51.922;8.850;2024-03-23T05:10:50;4.53;;;1.80;;
53391;SDS011;41667;51.922;8.850;2024-03-23T05:13:16;6.85;;;2.25;;
53391;SDS011;41667;51.922;8.850;2024-03-23T05:15:41;5.75;;;2.55;;
53391;SDS011;41667;51.922;8.850;2024-03-23T05:18:06;7.75;;;2.55;;
53391;SDS011;41667;51.922;8.850;2024-03-23T05:20:32;4.78;;;2.47;;
53391;SDS011;41667;51.922;8.850;2024-03-23T05:22:57;2.20;;;2.00;;
53391;SDS011;41667;51.922;8.850;2024-03-23T05:25:22;3.38;;;1.67;;
53391;SDS011;41667;51.922;8.850;2024-03-23T05:27:48;4.35;;;2.05;;
53391;SDS011;41667;51.922;8.850;2024-03-23T05:30:13;3.70;;;2.45;;
53391;SDS011;41667;51.922;8.850;2024-03-23T05:32:39;5.15;;;2.35;;
53391;SDS011;41667;51.922;8.850;2024-03-23T05:35:05;2.95;;;1.65;;
53391;SDS011;41667;51.922;8.850;2024-03-23T05:37:32;5.40;;;2.40;;
53391;SDS011;41667;51.922;8.850;2024-03-23T05:39:58;8.50;;;2.15;;
53391;SDS011;41667;51.922;8.850;2024-03-23T05:42:24;1.35;;;1.33;;
53391;SDS011;41667;51.922;8.850;2024-03-23T05:44:49;3.15;;;1.25;;
53391;SDS011;41667;51.922;8.850;2024-03-23T05:47:14;9.57;;;1.73;;
53391;SDS011;41667;51.922;8.850;2024-03-23T05:49:41;2.13;;;1.17;;
53391;SDS011;41667;51.922;8.850;2024-03-23T05:52:07;1.30;;;1.10;;
53391;SDS011;41667;51.922;8.850;2024-03-23T05:54:33;1.42;;;1.10;;
53391;SDS011;41667;51.922;8.850;2024-03-23T05:56:58;4.50;;;1.50;;
53391;SDS011;41667;51.922;8.850;2024-03-23T05:59:24;2.45;;;2.10;;
53391;SDS011;41667;51.922;8.850;2024-03-23T06:01:49;1.80;;;1.40;;
53391;SDS011;41667;51.922;8.850;2024-03-23T06:04:15;6.18;;;1.92;;
53391;SDS011;41667;51.922;8.850;2024-03-23T06:06:40;7.07;;;1.70;;
53391;SDS011;41667;51.922;8.850;2024-03-23T06:09:05;4.30;;;1.55;;
53391;SDS011;41667;51.922;8.850;2024-03-23T06:11:30;6.35;;;1.70;;
53391;SDS011;41667;51.922;8.850;2024-03-23T06:13:56;4.07;;;2.15;;
53391;SDS011;41667;51.922;8.850;2024-03-23T06:16:21;6.20;;;2.05;;
53391;SDS011;41667;51.922;8.850;2024-03-23T06:18:52;3.90;;;1.70;;
53391;SDS011;41667;51.922;8.850;2024-03-23T06:21:17;9.38;;;1.70;;
53391;SDS011;41667;51.922;8.850;2024-03-23T06:23:43;4.97;;;1.85;;
53391;SDS011;41667;51.922;8.850;2024-03-23T06:26:13;4.72;;;2.00;;
53391;SDS011;41667;51.922;8.850;2024-03-23T06:28:38;4.20;;;2.30;;
53391;SDS011;41667;51.922;8.850;2024-03-23T06:31:05;5.32;;;2.30;;
53391;SDS011;41667;51.922;8.850;2024-03-23T06:33:34;2.58;;;2.25;;
53391;SDS011;41667;51.922;8.850;2024-03-23T06:35:59;2.30;;;1.55;;
53391;SDS011;41667;51.922;8.850;2024-03-23T06:38:24;4.93;;;1.55;;
53391;SDS011;41667;51.922;8.850;2024-03-23T06:40:50;3.65;;;1.65;;
53391;SDS011;41667;51.922;8.850;2024-03-23T06:43:17;6.63;;;2.42;;
53391;SDS011;41667;51.922;8.850;2024-03-23T06:45:43;3.00;;;2.00;;
53391;SDS011;41667;51.922;8.850;2024-03-23T06:48:08;6.72;;;2.75;;
53391;SDS011;41667;51.922;8.850;2024-03-23T06:50:34;9.77;;;2.05;;
53391;SDS011;41667;51.922;8.850;2024-03-23T06:52:59;7.80;;;2.22;;
53391;SDS011;41667;51.922;8.850;2024-03-23T06:55:24;4.60;;;1.67;;
53391;SDS011;41667;51.922;8.850;2024-03-23T06:57:51;3.75;;;1.67;;
53391;SDS011;41667;51.922;8.850;2024-03-23T07:00:17;10.18;;;2.28;;
53391;SDS011;41667;51.922;8.850;2024-03-23T07:02:42;5.30;;;1.63;;
53391;SDS011;41667;51.922;8.850;2024-03-23T07:05:09;4.80;;;3.30;;
53391;SDS011;41667;51.922;8.850;2024-03-23T07:07:34;9.13;;;2.33;;
53391;SDS011;41667;51.922;8.850;2024-03-23T07:10:00;7.43;;;2.33;;
53391;SDS011;41667;51.922;8.850;2024-03-23T07:12:25;12.63;;;2.95;;
53391;SDS011;41667;51.922;8.850;2024-03-23T07:14:50;13.32;;;3.05;;
53391;SDS011;41667;51.922;8.850;2024-03-23T07:17:15;7.13;;;3.20;;
53391;SDS011;41667;51.922;8.850;2024-03-23T07:19:42;8.05;;;3.50;;
53391;SDS011;41667;51.922;8.850;2024-03-23T07:22:07;8.57;;;4.18;;
53391;SDS011;41667;51.922;8.850;2024-03-23T07:24:33;9.75;;;3.90;;
53391;SDS011;41667;51.922;8.850;2024-03-23T07:26:58;9.27;;;4.32;;
53391;SDS011;41667;51.922;8.850;2024-03-23T07:29:23;7.45;;;4.07;;
53391;SDS011;41667;51.922;8.850;2024-03-23T07:31:48;11.15;;;3.65;;
53391;SDS011;41667;51.922;8.850;2024-03-23T07:34:14;12.27;;;4.28;;
53391;SDS011;41667;51.922;8.850;2024-03-23T07:36:39;11.52;;;4.40;;
53391;SDS011;41667;51.922;8.850;2024-03-23T07:39:04;15.07;;;4.40;;
53391;SDS011;41667;51.922;8.850;2024-03-23T07:41:30;10.88;;;4.20;;
53391;SDS011;41667;51.922;8.850;2024-03-23T07:43:55;6.97;;;3.45;;
53391;SDS011;41667;51.922;8.850;2024-03-23T07:46:21;14.18;;;4.00;;
53391;SDS011;41667;51.922;8.850;2024-03-23T07:48:46;10.60;;;3.60;;
53391;SDS011;41667;51.922;8.850;2024-03-23T07:51:19;18.83;;;5.47;;
53391;SDS011;41667;51.922;8.850;2024-03-23T07:53:46;14.05;;;5.93;;
53391;SDS011;41667;51.922;8.850;2024-03-23T07:56:12;12.45;;;4.85;;
53391;SDS011;41667;51.922;8.850;2024-03-23T07:58:40;11.85;;;4.63;;
53391;SDS011;41667;51.922;8.850;2024-03-23T08:01:06;12.35;;;5.05;;
53391;SDS011;41667;51.922;8.850;2024-03-23T08:03:33;14.80;;;5.25;;
53391;SDS011;41667;51.922;8.850;2024-03-23T08:06:06;11.25;;;5.10;;
53391;SDS011;41667;51.922;8.850;2024-03-23T08:08:31;13.32;;;6.43;;
53391;SDS011;41667;51.922;8.850;2024-03-23T08:10:57;17.65;;;5.07;;
53391;SDS011;41667;51.922;8.850;2024-03-23T08:13:22;14.90;;;5.63;;
53391;SDS011;41667;51.922;8.850;2024-03-23T08:15:47;14.80;;;6.13;;
53391;SDS011;41667;51.922;8.850;2024-03-23T08:18:13;13.32;;;6.55;;
53391;SDS011;41667;51.922;8.850;2024-03-23T08:20:41;21.42;;;7.43;;
53391;SDS011;41667;51.922;8.850;2024-03-23T08:23:07;16.65;;;6.78;;
53391;SDS011;41667;51.922;8.850;2024-03-23T08:25:33;13.30;;;5.00;;
53391;SDS011;41667;51.922;8.850;2024-03-23T08:28:00;18.20;;;6.65;;
53391;SDS011;41667;51.922;8.850;2024-03-23T08:30:26;26.08;;;6.90;;
53391;SDS011;41667;51.922;8.850;2024-03-23T08:32:51;18.95;;;7.53;;
53391;SDS011;41667;51.922;8.850;2024-03-23T08:35:16;18.58;;;7.50;;
53391;SDS011;41667;51.922;8.850;2024-03-23T08:37:42;15.32;;;7.25;;
53391;SDS011;41667;51.922;8.850;2024-03-23T08:40:07;16.38;;;6.55;;
53391;SDS011;41667;51.922;8.850;2024-03-23T08:42:33;15.70;;;6.15;;
53391;SDS011;41667;51.922;8.850;2024-03-23T08:44:59;13.95;;;6.10;;
53391;SDS011;41667;51.922;8.850;2024-03-23T08:47:24;23.48;;;7.28;;
53391;SDS011;41667;51.922;8.850;2024-03-23T08:49:49;10.48;;;5.15;;
53391;SDS011;41667;51.922;8.850;2024-03-23T08:52:15;18.55;;;5.18;;
53391;SDS011;41667;51.922;8.850;2024-03-23T08:54:40;10.68;;;5.78;;
53391;SDS011;41667;51.922;8.850;2024-03-23T08:57:05;10.10;;;5.13;;
53391;SDS011;41667;51.922;8.850;2024-03-23T08:59:32;16.45;;;5.05;;
53391;SDS011;41667;51.922;8.850;2024-03-23T09:01:57;9.38;;;3.83;;
53391;SDS011;41667;51.922;8.850;2024-03-23T09:04:23;12.43;;;5.03;;
53391;SDS011;41667;51.922;8.850;2024-03-23T09:06:48;8.98;;;5.35;;
53391;SDS011;41667;51.922;8.850;2024-03-23T09:09:13;11.43;;;5.00;;
53391;SDS011;41667;51.922;8.850;2024-03-23T09:11:38;10.27;;;5.00;;
53391;SDS011;41667;51.922;8.850;2024-03-23T09:14:04;8.35;;;4.93;;
53391;SDS011;41667;51.922;8.850;2024-03-23T09:16:29;12.95;;;5.65;;
53391;SDS011;41667;51.922;8.850;2024-03-23T09:18:54;8.10;;;4.13;;
53391;SDS011;41667;51.922;8.850;2024-03-23T09:21:20;12.27;;;4.82;;
53391;SDS011;41667;51.922;8.850;2024-03-23T09:23:45;11.70;;;5.05;;
53391;SDS011;41667;51.922;8.850;2024-03-23T09:26:11;4.82;;;3.92;;
53391;SDS011;41667;51.922;8.850;2024-03-23T09:28:36;10.32;;;5.35;;
53391;SDS011;41667;51.922;8.850;2024-03-23T09:31:05;7.60;;;3.90;;
53391;SDS011;41667;51.922;8.850;2024-03-23T09:33:32;9.50;;;4.15;;
53391;SDS011;41667;51.922;8.850;2024-03-23T09:35:58;8.05;;;4.13;;
53391;SDS011;41667;51.922;8.850;2024-03-23T09:38:23;5.13;;;3.58;;
53391;SDS011;41667;51.922;8.850;2024-03-23T09:40:52;8.77;;;4.03;;
53391;SDS011;41667;51.922;8.850;2024-03-23T09:43:18;9.90;;;3.90;;
53391;SDS011;41667;51.922;8.850;2024-03-23T09:45:44;10.68;;;3.88;;
53391;SDS011;41667;51.922;8.850;2024-03-23T09:48:10;4.72;;;3.00;;
53391;SDS011;41667;51.922;8.850;2024-03-23T09:50:39;8.35;;;3.45;;
53391;SDS011;41667;51.922;8.850;2024-03-23T09:53:06;4.55;;;2.70;;
53391;SDS011;41667;51.922;8.850;2024-03-23T09:55:32;8.85;;;2.35;;
53391;SDS011;41667;51.922;8.850;2024-03-23T09:57:57;8.40;;;3.38;;
53391;SDS011;41667;51.922;8.850;2024-03-23T10:00:22;3.88;;;2.38;;
53391;SDS011;41667;51.922;8.850;2024-03-23T10:02:48;14.48;;;2.75;;
53391;SDS011;41667;51.922;8.850;2024-03-23T10:05:20;9.60;;;2.95;;
53391;SDS011;41667;51.922;8.850;2024-03-23T10:07:47;5.10;;;3.55;;
53391;SDS011;41667;51.922;8.850;2024-03-23T10:10:12;7.72;;;2.95;;
53391;SDS011;41667;51.922;8.850;2024-03-23T10:12:40;2.70;;;2.35;;
53391;SDS011;41667;51.922;8.850;2024-03-23T10:17:48;6.82;;;2.95;;
53391;SDS011;41667;51.922;8.850;2024-03-23T10:20:18;4.18;;;2.33;;
53391;SDS011;41667;51.922;8.850;2024-03-23T10:22:44;6.07;;;2.87;;
53391;SDS011;41667;51.922;8.850;2024-03-23T10:25:10;6.85;;;2.58;;
53391;SDS011;41667;51.922;8.850;2024-03-23T10:27:36;5.93;;;2.28;;
53391;SDS011;41667;51.922;8.850;2024-03-23T10:30:11;3.85;;;2.20;;
53391;SDS011;41667;51.922;8.850;2024-03-23T10:32:39;5.50;;;2.47;;
53391;SDS011;41667;51.922;8.850;2024-03-23T10:35:14;4.10;;;2.63;;
53391;SDS011;41667;51.922;8.850;2024-03-23T10:37:41;4.22;;;2.28;;
53391;SDS011;41667;51.922;8.850;2024-03-23T10:40:07;2.78;;;2.58;;
53391;SDS011;41667;51.922;8.850;2024-03-23T10:42:35;7.93;;;2.88;;
53391;SDS011;41667;51.922;8.850;2024-03-23T10:45:00;9.27;;;2.55;;
53391;SDS011;41667;51.922;8.850;2024-03-23T10:47:26;6.32;;;2.67;;
53391;SDS011;41667;51.922;8.850;2024-03-23T10:49:51;8.93;;;2.60;;
53391;SDS011;41667;51.922;8.850;2024-03-23T10:52:16;11.27;;;2.55;;
53391;SDS011;41667;51.922;8.850;2024-03-23T10:54:42;5.15;;;2.67;;
53391;SDS011;41667;51.922;8.850;2024-03-23T10:59:56;3.35;;;2.00;;
53391;SDS011;41667;51.922;8.850;2024-03-23T11:02:22;7.88;;;3.50;;
53391;SDS011;41667;51.922;8.850;2024-03-23T11:04:48;9.70;;;2.80;;
53391;SDS011;41667;51.922;8.850;2024-03-23T11:09:51;3.75;;;1.75;;
53391;SDS011;41667;51.922;8.850;2024-03-23T11:12:18;5.20;;;2.13;;
53391;SDS011;41667;51.922;8.850;2024-03-23T11:14:52;2.05;;;1.48;;
53391;SDS011;41667;51.922;8.850;2024-03-23T11:17:18;5.95;;;1.73;;
53391;SDS011;41667;51.922;8.850;2024-03-23T11:19:44;2.95;;;1.73;;
53391;SDS011;41667;51.922;8.850;2024-03-23T11:22:09;2.42;;;1.33;;
53391;SDS011;41667;51.922;8.850;2024-03-23T11:24:34;3.70;;;1.63;;
53391;SDS011;41667;51.922;8.850;2024-03-23T11:27:00;2.08;;;1.10;;
53391;SDS011;41667;51.922;8.850;2024-03-23T11:29:28;3.50;;;1.45;;
53391;SDS011;41667;51.922;8.850;2024-03-23T11:31:54;1.45;;;1.30;;
53391;SDS011;41667;51.922;8.850;2024-03-23T11:34:20;1.38;;;1.27;;
53391;SDS011;41667;51.922;8.850;2024-03-23T11:36:45;3.83;;;1.45;;
53391;SDS011;41667;51.922;8.850;2024-03-23T11:39:15;3.60;;;1.00;;
53391;SDS011;41667;51.922;8.850;2024-03-23T11:44:20;3.28;;;1.48;;
53391;SDS011;41667;51.922;8.850;2024-03-23T11:46:47;1.83;;;1.45;;
53391;SDS011;41667;51.922;8.850;2024-03-23T11:49:25;1.55;;;1.45;;
53391;SDS011;41667;51.922;8.850;2024-03-23T11:51:52;2.03;;;1.73;;
53391;SDS011;41667;51.922;8.850;2024-03-23T11:54:25;3.65;;;1.40;;
53391;SDS011;41667;51.922;8.850;2024-03-23T11:57:08;2.05;;;1.95;;
53391;SDS011;41667;51.922;8.850;2024-03-23T12:01:59;1.40;;;1.30;;
53391;SDS011;41667;51.922;8.850;2024-03-23T12:04:28;1.10;;;1.02;;
53391;SDS011;41667;51.922;8.850;2024-03-23T12:07:12;4.50;;;1.98;;
53391;SDS011;41667;51.922;8.850;2024-03-23T12:09:43;2.08;;;1.65;;
53391;SDS011;41667;51.922;8.850;2024-03-23T12:12:13;4.10;;;2.00;;
53391;SDS011;41667;51.922;8.850;2024-03-23T12:14:40;2.40;;;1.45;;
53391;SDS011;41667;51.922;8.850;2024-03-23T12:17:10;6.05;;;1.70;;
53391;SDS011;41667;51.922;8.850;2024-03-23T12:19:35;10.82;;;2.15;;
53391;SDS011;41667;51.922;8.850;2024-03-23T12:22:02;2.72;;;1.85;;
53391;SDS011;41667;51.922;8.850;2024-03-23T12:24:28;3.08;;;2.15;;
53391;SDS011;41667;51.922;8.850;2024-03-23T12:26:54;1.92;;;1.65;;
53391;SDS011;41667;51.922;8.850;2024-03-23T12:29:20;7.07;;;2.00;;
53391;SDS011;41667;51.922;8.850;2024-03-23T12:31:45;4.63;;;1.70;;
53391;SDS011;41667;51.922;8.850;2024-03-23T12:34:10;4.22;;;1.80;;
53391;SDS011;41667;51.922;8.850;2024-03-23T12:36:36;3.53;;;1.88;;
53391;SDS011;41667;51.922;8.850;2024-03-23T12:39:01;2.90;;;1.90;;
53391;SDS011;41667;51.922;8.850;2024-03-23T12:41:26;4.53;;;2.00;;
53391;SDS011;41667;51.922;8.850;2024-03-23T12:43:52;6.47;;;2.22;;
53391;SDS011;41667;51.922;8.850;2024-03-23T12:46:17;4.60;;;1.73;;
53391;SDS011;41667;51.922;8.850;2024-03-23T12:48:44;5.05;;;2.75;;
53391;SDS011;41667;51.922;8.850;2024-03-23T12:51:09;0.82;;;0.77;;
53391;SDS011;41667;51.922;8.850;2024-03-23T12:53:35;3.95;;;1.20;;
53391;SDS011;41667;51.922;8.850;2024-03-23T12:56:00;0.70;;;0.70;;
53391;SDS011;41667;51.922;8.850;2024-03-23T12:58:25;0.70;;;0.70;;
53391;SDS011;41667;51.922;8.850;2024-03-23T13:00:50;1.13;;;1.05;;
53391;SDS011;41667;51.922;8.850;2024-03-23T13:03:16;0.70;;;0.70;;
53391;SDS011;41667;51.922;8.850;2024-03-23T13:05:42;0.85;;;0.70;;
53391;SDS011;41667;51.922;8.850;2024-03-23T13:08:07;0.68;;;0.68;;
53391;SDS011;41667;51.922;8.850;2024-03-23T13:10:32;1.15;;;0.70;;
53391;SDS011;41667;51.922;8.850;2024-03-23T13:12:58;1.20;;;1.10;;
53391;SDS011;41667;51.922;8.850;2024-03-23T13:15:23;2.72;;;0.95;;
53391;SDS011;41667;51.922;8.850;2024-03-23T13:17:48;1.98;;;1.23;;
53391;SDS011;41667;51.922;8.850;2024-03-23T13:20:13;3.20;;;2.03;;
53391;SDS011;41667;51.922;8.850;2024-03-23T13:22:39;3.40;;;1.55;;
53391;SDS011;41667;51.922;8.850;2024-03-23T13:25:05;1.58;;;1.10;;
53391;SDS011;41667;51.922;8.850;2024-03-23T13:27:30;1.95;;;1.00;;
53391;SDS011;41667;51.922;8.850;2024-03-23T13:29:56;3.70;;;1.25;;
53391;SDS011;41667;51.922;8.850;2024-03-23T13:32:21;1.92;;;1.10;;
53391;SDS011;41667;51.922;8.850;2024-03-23T13:34:46;1.20;;;1.13;;
53391;SDS011;41667;51.922;8.850;2024-03-23T13:37:15;1.20;;;1.20;;
53391;SDS011;41667;51.922;8.850;2024-03-23T13:39:40;3.13;;;1.40;;
53391;SDS011;41667;51.922;8.850;2024-03-23T13:42:06;4.65;;;1.38;;
53391;SDS011;41667;51.922;8.850;2024-03-23T13:44:33;2.88;;;2.78;;
53391;SDS011;41667;51.922;8.850;2024-03-23T13:46:59;3.10;;;1.30;;
53391;SDS011;41667;51.922;8.850;2024-03-23T13:49:25;2.75;;;1.33;;
53391;SDS011;41667;51.922;8.850;2024-03-23T13:51:54;1.58;;;1.10;;
53391;SDS011;41667;51.922;8.850;2024-03-23T13:54:20;1.13;;;1.13;;
53391;SDS011;41667;51.922;8.850;2024-03-23T13:56:47;3.13;;;1.40;;
53391;SDS011;41667;51.922;8.850;2024-03-23T13:59:13;1.45;;;0.95;;
53391;SDS011;41667;51.922;8.850;2024-03-23T14:01:39;1.50;;;1.40;;
53391;SDS011;41667;51.922;8.850;2024-03-23T14:04:04;1.30;;;1.27;;
53391;SDS011;41667;51.922;8.850;2024-03-23T14:06:29;2.05;;;1.25;;
53391;SDS011;41667;51.922;8.850;2024-03-23T14:08:54;3.28;;;0.75;;
53391;SDS011;41667;51.922;8.850;2024-03-23T14:11:20;0.80;;;0.80;;
53391;SDS011;41667;51.922;8.850;2024-03-23T14:13:45;1.33;;;1.00;;
53391;SDS011;41667;51.922;8.850;2024-03-23T14:16:10;1.10;;;1.10;;
53391;SDS011;41667;51.922;8.850;2024-03-23T14:18:36;1.00;;;1.00;;
53391;SDS011;41667;51.922;8.850;2024-03-23T14:21:01;0.82;;;0.80;;
53391;SDS011;41667;51.922;8.850;2024-03-23T14:23:27;2.83;;;1.10;;
53391;SDS011;41667;51.922;8.850;2024-03-23T14:25:59;1.52;;;0.82;;
53391;SDS011;41667;51.922;8.850;2024-03-23T14:28:24;1.20;;;0.80;;
53391;SDS011;41667;51.922;8.850;2024-03-23T14:30:50;2.10;;;0.85;;
53391;SDS011;41667;51.922;8.850;2024-03-23T14:33:16;3.40;;;0.75;;
53391;SDS011;41667;51.922;8.850;2024-03-23T14:35:41;0.73;;;0.73;;
53391;SDS011;41667;51.922;8.850;2024-03-23T14:38:07;3.92;;;0.82;;
53391;SDS011;41667;51.922;8.850;2024-03-23T14:40:32;0.88;;;0.88;;
53391;SDS011;41667;51.922;8.850;2024-03-23T14:42:58;4.30;;;1.48;;
53391;SDS011;41667;51.922;8.850;2024-03-23T14:45:23;4.22;;;0.90;;
53391;SDS011;41667;51.922;8.850;2024-03-23T14:47:50;1.00;;;1.00;;
53391;SDS011;41667;51.922;8.850;2024-03-23T14:50:15;1.55;;;1.10;;
53391;SDS011;41667;51.922;8.850;2024-03-23T14:52:47;2.25;;;1.60;;
53391;SDS011;41667;51.922;8.850;2024-03-23T14:55:12;2.67;;;1.60;;
53391;SDS011;41667;51.922;8.850;2024-03-23T14:57:38;1.30;;;1.17;;
53391;SDS011;41667;51.922;8.850;2024-03-23T15:00:07;1.40;;;1.30;;
53391;SDS011;41667;51.922;8.850;2024-03-23T15:02:33;1.20;;;1.10;;
53391;SDS011;41667;51.922;8.850;2024-03-23T15:04:59;1.48;;;1.38;;
53391;SDS011;41667;51.922;8.850;2024-03-23T15:07:24;1.20;;;1.08;;
53391;SDS011;41667;51.922;8.850;2024-03-23T15:09:50;1.30;;;1.20;;
53391;SDS011;41667;51.922;8.850;2024-03-23T15:12:15;1.27;;;1.27;;
53391;SDS011;41667;51.922;8.850;2024-03-23T15:14:40;3.17;;;2.05;;
53391;SDS011;41667;51.922;8.850;2024-03-23T15:17:06;1.92;;;1.83;;
53391;SDS011;41667;51.922;8.850;2024-03-23T15:19:32;2.45;;;2.28;;
53391;SDS011;41667;51.922;8.850;2024-03-23T15:21:58;4.63;;;1.75;;
53391;SDS011;41667;51.922;8.850;2024-03-23T15:24:23;1.48;;;1.23;;
53391;SDS011;41667;51.922;8.850;2024-03-23T15:26:49;1.60;;;1.50;;
53391;SDS011;41667;51.922;8.850;2024-03-23T15:29:15;4.00;;;1.40;;
53391;SDS011;41667;51.922;8.850;2024-03-23T15:31:42;1.70;;;1.60;;
53391;SDS011;41667;51.922;8.850;2024-03-23T15:34:08;2.28;;;1.50;;
53391;SDS011;41667;51.922;8.850;2024-03-23T15:36:35;3.08;;;1.35;;
53391;SDS011;41667;51.922;8.850;2024-03-23T15:39:03;3.13;;;1.25;;
53391;SDS011;41667;51.922;8.850;2024-03-23T15:41:28;2.58;;;1.40;;
53391;SDS011;41667;51.922;8.850;2024-03-23T15:43:53;1.52;;;1.20;;
53391;SDS011;41667;51.922;8.850;2024-03-23T15:46:19;1.33;;;1.27;;